This is the latest recevied weather packets stored in our database for station/object EA5CBT-13. If no packets are shown the sender has not sent any weather packets the latest 10 day(s).
| Time | Temp. | Humidity | Pressure | Rain* | Wind** | Luminosity | Snow |
|---|---|---|---|---|---|---|---|
| 1777913725 | 22.78° C | 53% | 1007.5 hPa | 0 mm | - | - | - |
| 1777901144 | 25° C | 43% | 1008.2 hPa | 0 mm | - | - | - |
| 1777899929 | 25° C | 50% | 1008.5 hPa | 0 mm | - | - | - |
| 1777897598 | 24.44° C | 50% | 1008.9 hPa | 0 mm | - | - | - |
| 1777889172 | 23.89° C | 62% | 1010.5 hPa | 0 mm | - | - | - |
| 1777886741 | 23.33° C | 63% | 1010.5 hPa | 0 mm | - | - | - |
| 1777881941 | 19.44° C | 76% | 1010.4 hPa | 0 mm | - | - | - |
| 1777880119 | 19.44° C | 76% | 1010.6 hPa | 0 mm | - | - | - |
| 1777877750 | 18.33° C | 80% | 1010.4 hPa | 0 mm | - | - | - |
| 1777876556 | 18.33° C | 79% | 1010.4 hPa | 0 mm | - | - | - |
| 1777875928 | 18.33° C | 80% | 1010.2 hPa | 0 mm | - | - | - |
| 1777874773 | 18.33° C | 80% | 1010 hPa | 0 mm | - | - | - |
| 1777873579 | 18.33° C | 81% | 1009.7 hPa | 0 mm | - | - | - |
| 1777872343 | 18.33° C | 81% | 1009.7 hPa | 0 mm | - | - | - |
| 1777865722 | 18.33° C | 83% | 1010 hPa | 0 mm | - | - | - |
| 1777860921 | 17.78° C | 84% | 1010.3 hPa | 0 mm | - | - | - |
| 1777857945 | 17.78° C | 82% | 1010.6 hPa | 0 mm | - | - | - |
| 1777848347 | 18.89° C | 83% | 1011.2 hPa | 0 mm | - | - | - |
| 1777846525 | 18.89° C | 82% | 1011.2 hPa | 0 mm | - | - | - |
| 1777838138 | 18.89° C | 82% | 1010.8 hPa | 0 mm | - | - | - |
| 1777837570 | 18.89° C | 82% | 1010.7 hPa | 0 mm | - | - | - |
| 1777829750 | 20.56° C | 74% | 1009 hPa | 0 mm | - | - | - |
| 1777827927 | 21.67° C | 71% | 1008.9 hPa | 0 mm | - | - | - |
| 1777821970 | 22.78° C | 65% | 1009.7 hPa | 0 mm | - | - | - |
| 1777813522 | 23.33° C | 62% | 1011 hPa | 0 mm | - | - | - |
* Rain latest hour (hover to see other rain measurements)
** Current wind speed in m/s (hover to see current wind gust speed)